sensor_id;sensor_type;location;lat;lon;timestamp;temperature;humidity
21676;DHT22;10999;51.332;9.458;2022-10-22T00:02:23;13.80;99.90
21676;DHT22;10999;51.332;9.458;2022-10-22T00:04:51;13.90;99.90
21676;DHT22;10999;51.332;9.458;2022-10-22T00:07:19;13.90;99.90
21676;DHT22;10999;51.332;9.458;2022-10-22T00:09:46;13.90;99.90
21676;DHT22;10999;51.332;9.458;2022-10-22T00:12:14;13.90;99.90
21676;DHT22;10999;51.332;9.458;2022-10-22T00:14:42;13.90;99.90
21676;DHT22;10999;51.332;9.458;2022-10-22T00:17:09;13.90;99.90
21676;DHT22;10999;51.332;9.458;2022-10-22T00:19:37;13.90;99.90
21676;DHT22;10999;51.332;9.458;2022-10-22T00:22:04;13.90;99.90
21676;DHT22;10999;51.332;9.458;2022-10-22T00:24:32;13.90;99.90
21676;DHT22;10999;51.332;9.458;2022-10-22T00:26:59;14.00;99.90
21676;DHT22;10999;51.332;9.458;2022-10-22T00:29:26;14.00;99.90
21676;DHT22;10999;51.332;9.458;2022-10-22T00:31:53;14.00;99.90
21676;DHT22;10999;51.332;9.458;2022-10-22T00:34:20;14.10;99.90
21676;DHT22;10999;51.332;9.458;2022-10-22T00:36:48;14.10;99.90
21676;DHT22;10999;51.332;9.458;2022-10-22T00:39:17;14.10;99.90
21676;DHT22;10999;51.332;9.458;2022-10-22T00:41:46;14.10;99.90
21676;DHT22;10999;51.332;9.458;2022-10-22T00:47:18;14.10;99.90
21676;DHT22;10999;51.332;9.458;2022-10-22T00:49:45;14.10;99.90
21676;DHT22;10999;51.332;9.458;2022-10-22T00:52:13;14.10;99.90
21676;DHT22;10999;51.332;9.458;2022-10-22T00:54:40;14.10;99.90
21676;DHT22;10999;51.332;9.458;2022-10-22T00:57:08;14.10;99.90
21676;DHT22;10999;51.332;9.458;2022-10-22T00:59:36;14.00;99.90
21676;DHT22;10999;51.332;9.458;2022-10-22T01:02:03;14.00;99.90
21676;DHT22;10999;51.332;9.458;2022-10-22T01:04:30;14.00;99.90
21676;DHT22;10999;51.332;9.458;2022-10-22T01:06:56;14.00;99.90
21676;DHT22;10999;51.332;9.458;2022-10-22T01:09:31;14.00;99.90
21676;DHT22;10999;51.332;9.458;2022-10-22T01:15:06;14.00;99.90
21676;DHT22;10999;51.332;9.458;2022-10-22T01:20:38;13.90;99.90
21676;DHT22;10999;51.332;9.458;2022-10-22T01:23:32;13.90;99.90
21676;DHT22;10999;51.332;9.458;2022-10-22T01:26:14;13.90;99.90
21676;DHT22;10999;51.332;9.458;2022-10-22T01:29:09;13.90;99.90
21676;DHT22;10999;51.332;9.458;2022-10-22T01:31:52;13.90;99.90
21676;DHT22;10999;51.332;9.458;2022-10-22T01:34:21;13.90;99.90
21676;DHT22;10999;51.332;9.458;2022-10-22T01:36:50;13.90;99.90
21676;DHT22;10999;51.332;9.458;2022-10-22T01:39:18;13.90;99.90
21676;DHT22;10999;51.332;9.458;2022-10-22T01:41:46;13.90;99.90
21676;DHT22;10999;51.332;9.458;2022-10-22T01:44:27;13.80;99.90
21676;DHT22;10999;51.332;9.458;2022-10-22T01:47:06;13.80;99.90
21676;DHT22;10999;51.332;9.458;2022-10-22T02:01:03;13.70;99.90
21676;DHT22;10999;51.332;9.458;2022-10-22T02:03:39;13.80;99.90
21676;DHT22;10999;51.332;9.458;2022-10-22T02:06:13;13.80;99.90
21676;DHT22;10999;51.332;9.458;2022-10-22T02:08:41;13.80;99.90
21676;DHT22;10999;51.332;9.458;2022-10-22T02:11:10;13.80;99.90
21676;DHT22;10999;51.332;9.458;2022-10-22T02:13:45;13.80;99.90
21676;DHT22;10999;51.332;9.458;2022-10-22T02:16:16;13.80;99.90
21676;DHT22;10999;51.332;9.458;2022-10-22T02:18:45;13.80;99.90
21676;DHT22;10999;51.332;9.458;2022-10-22T02:21:14;13.80;99.90
21676;DHT22;10999;51.332;9.458;2022-10-22T02:23:42;13.80;99.90
21676;DHT22;10999;51.332;9.458;2022-10-22T02:29:12;13.70;99.90
21676;DHT22;10999;51.332;9.458;2022-10-22T02:31:41;13.70;99.90
21676;DHT22;10999;51.332;9.458;2022-10-22T02:34:12;13.60;99.90
21676;DHT22;10999;51.332;9.458;2022-10-22T02:36:41;13.60;99.90
21676;DHT22;10999;51.332;9.458;2022-10-22T02:39:16;13.60;99.90
21676;DHT22;10999;51.332;9.458;2022-10-22T02:41:44;13.50;99.90
21676;DHT22;10999;51.332;9.458;2022-10-22T02:44:11;13.50;99.90
21676;DHT22;10999;51.332;9.458;2022-10-22T02:46:38;13.50;99.90
21676;DHT22;10999;51.332;9.458;2022-10-22T02:49:06;13.50;99.90
21676;DHT22;10999;51.332;9.458;2022-10-22T02:51:33;13.50;99.90
21676;DHT22;10999;51.332;9.458;2022-10-22T02:53:59;13.40;99.90
21676;DHT22;10999;51.332;9.458;2022-10-22T02:56:26;13.40;99.90
21676;DHT22;10999;51.332;9.458;2022-10-22T02:58:53;13.40;99.90
21676;DHT22;10999;51.332;9.458;2022-10-22T03:01:20;13.40;99.90
21676;DHT22;10999;51.332;9.458;2022-10-22T03:03:46;13.30;99.90
21676;DHT22;10999;51.332;9.458;2022-10-22T03:06:13;13.30;99.90
21676;DHT22;10999;51.332;9.458;2022-10-22T03:08:40;13.30;99.90
21676;DHT22;10999;51.332;9.458;2022-10-22T03:11:07;13.30;99.90
21676;DHT22;10999;51.332;9.458;2022-10-22T03:13:34;13.30;99.90
21676;DHT22;10999;51.332;9.458;2022-10-22T03:16:00;13.20;99.90
21676;DHT22;10999;51.332;9.458;2022-10-22T03:18:27;13.20;99.90
21676;DHT22;10999;51.332;9.458;2022-10-22T03:21:15;13.10;99.90
21676;DHT22;10999;51.332;9.458;2022-10-22T03:23:47;13.10;99.90
21676;DHT22;10999;51.332;9.458;2022-10-22T03:26:13;13.00;99.90
21676;DHT22;10999;51.332;9.458;2022-10-22T03:28:41;13.00;99.90
21676;DHT22;10999;51.332;9.458;2022-10-22T03:31:07;13.10;99.90
21676;DHT22;10999;51.332;9.458;2022-10-22T03:33:34;13.10;99.90
21676;DHT22;10999;51.332;9.458;2022-10-22T03:36:01;13.10;99.90
21676;DHT22;10999;51.332;9.458;2022-10-22T03:38:28;13.20;99.90
21676;DHT22;10999;51.332;9.458;2022-10-22T03:40:55;13.20;99.90
21676;DHT22;10999;51.332;9.458;2022-10-22T03:43:22;13.30;99.90
21676;DHT22;10999;51.332;9.458;2022-10-22T03:45:48;13.40;99.90
21676;DHT22;10999;51.332;9.458;2022-10-22T03:48:15;13.40;99.90
21676;DHT22;10999;51.332;9.458;2022-10-22T03:50:41;13.50;99.90
21676;DHT22;10999;51.332;9.458;2022-10-22T03:53:08;13.40;99.90
21676;DHT22;10999;51.332;9.458;2022-10-22T03:55:36;13.40;99.90
21676;DHT22;10999;51.332;9.458;2022-10-22T03:58:04;13.50;99.90
21676;DHT22;10999;51.332;9.458;2022-10-22T04:00:31;13.50;99.90
21676;DHT22;10999;51.332;9.458;2022-10-22T04:02:58;13.50;99.90
21676;DHT22;10999;51.332;9.458;2022-10-22T04:05:24;13.50;99.90
21676;DHT22;10999;51.332;9.458;2022-10-22T04:07:51;13.50;99.90
21676;DHT22;10999;51.332;9.458;2022-10-22T04:10:18;13.60;99.90
21676;DHT22;10999;51.332;9.458;2022-10-22T04:12:46;13.60;99.90
21676;DHT22;10999;51.332;9.458;2022-10-22T04:15:13;13.60;99.90
21676;DHT22;10999;51.332;9.458;2022-10-22T04:17:40;13.60;99.90
21676;DHT22;10999;51.332;9.458;2022-10-22T04:20:07;13.60;99.90
21676;DHT22;10999;51.332;9.458;2022-10-22T04:22:35;13.60;99.90
21676;DHT22;10999;51.332;9.458;2022-10-22T04:25:03;13.60;99.90
21676;DHT22;10999;51.332;9.458;2022-10-22T04:27:31;13.60;99.90
21676;DHT22;10999;51.332;9.458;2022-10-22T04:29:58;13.70;99.90
21676;DHT22;10999;51.332;9.458;2022-10-22T04:32:27;13.60;99.90
21676;DHT22;10999;51.332;9.458;2022-10-22T04:34:54;13.60;99.90
21676;DHT22;10999;51.332;9.458;2022-10-22T04:37:21;13.60;99.90
21676;DHT22;10999;51.332;9.458;2022-10-22T04:39:47;13.60;99.90
21676;DHT22;10999;51.332;9.458;2022-10-22T04:42:14;13.60;99.90
21676;DHT22;10999;51.332;9.458;2022-10-22T04:44:41;13.60;99.90
21676;DHT22;10999;51.332;9.458;2022-10-22T04:47:07;13.60;99.90
21676;DHT22;10999;51.332;9.458;2022-10-22T04:49:34;13.60;99.90
21676;DHT22;10999;51.332;9.458;2022-10-22T04:52:00;13.60;99.90
21676;DHT22;10999;51.332;9.458;2022-10-22T04:54:27;13.60;99.90
21676;DHT22;10999;51.332;9.458;2022-10-22T04:56:58;13.50;99.90
21676;DHT22;10999;51.332;9.458;2022-10-22T04:59:25;13.60;99.90
21676;DHT22;10999;51.332;9.458;2022-10-22T05:01:52;13.60;99.90
21676;DHT22;10999;51.332;9.458;2022-10-22T05:04:18;13.60;99.90
21676;DHT22;10999;51.332;9.458;2022-10-22T05:06:46;13.60;99.90
21676;DHT22;10999;51.332;9.458;2022-10-22T05:09:16;13.50;99.90
21676;DHT22;10999;51.332;9.458;2022-10-22T05:11:45;13.60;99.90
21676;DHT22;10999;51.332;9.458;2022-10-22T05:14:16;13.50;99.90
21676;DHT22;10999;51.332;9.458;2022-10-22T05:16:43;13.50;99.90
21676;DHT22;10999;51.332;9.458;2022-10-22T05:19:15;13.50;99.90
21676;DHT22;10999;51.332;9.458;2022-10-22T05:21:42;13.50;99.90
21676;DHT22;10999;51.332;9.458;2022-10-22T05:24:09;13.50;99.90
21676;DHT22;10999;51.332;9.458;2022-10-22T05:26:36;13.50;99.90
21676;DHT22;10999;51.332;9.458;2022-10-22T05:29:02;13.50;99.90
21676;DHT22;10999;51.332;9.458;2022-10-22T05:31:29;13.40;99.90
21676;DHT22;10999;51.332;9.458;2022-10-22T05:33:55;13.50;99.90
21676;DHT22;10999;51.332;9.458;2022-10-22T05:36:22;13.40;99.90
21676;DHT22;10999;51.332;9.458;2022-10-22T05:38:49;13.40;99.90
21676;DHT22;10999;51.332;9.458;2022-10-22T05:41:21;13.40;99.90
21676;DHT22;10999;51.332;9.458;2022-10-22T05:43:48;13.50;99.90
21676;DHT22;10999;51.332;9.458;2022-10-22T05:46:18;13.50;99.90
21676;DHT22;10999;51.332;9.458;2022-10-22T05:48:54;13.50;99.90
21676;DHT22;10999;51.332;9.458;2022-10-22T05:51:21;13.50;99.90
21676;DHT22;10999;51.332;9.458;2022-10-22T05:53:51;13.50;99.90
21676;DHT22;10999;51.332;9.458;2022-10-22T05:56:18;13.50;99.90
21676;DHT22;10999;51.332;9.458;2022-10-22T05:58:45;13.50;99.90
21676;DHT22;10999;51.332;9.458;2022-10-22T06:01:18;13.50;99.90
21676;DHT22;10999;51.332;9.458;2022-10-22T06:03:45;13.50;99.90
21676;DHT22;10999;51.332;9.458;2022-10-22T06:06:44;13.40;99.90
21676;DHT22;10999;51.332;9.458;2022-10-22T06:09:25;13.40;99.90
21676;DHT22;10999;51.332;9.458;2022-10-22T06:11:52;13.40;99.90
21676;DHT22;10999;51.332;9.458;2022-10-22T06:14:20;13.40;99.90
21676;DHT22;10999;51.332;9.458;2022-10-22T06:16:48;13.40;99.90
21676;DHT22;10999;51.332;9.458;2022-10-22T06:19:17;13.40;99.90
21676;DHT22;10999;51.332;9.458;2022-10-22T06:21:44;13.40;99.90
21676;DHT22;10999;51.332;9.458;2022-10-22T06:24:11;13.40;99.90
21676;DHT22;10999;51.332;9.458;2022-10-22T06:26:38;13.50;99.90
21676;DHT22;10999;51.332;9.458;2022-10-22T06:29:06;13.50;99.90
21676;DHT22;10999;51.332;9.458;2022-10-22T06:31:32;13.60;99.90
21676;DHT22;10999;51.332;9.458;2022-10-22T06:34:04;13.60;99.90
21676;DHT22;10999;51.332;9.458;2022-10-22T06:36:31;13.60;99.90
21676;DHT22;10999;51.332;9.458;2022-10-22T06:38:58;13.60;99.90
21676;DHT22;10999;51.332;9.458;2022-10-22T06:41:25;13.70;99.90
21676;DHT22;10999;51.332;9.458;2022-10-22T06:43:55;13.70;99.90
21676;DHT22;10999;51.332;9.458;2022-10-22T06:46:23;13.80;99.90
21676;DHT22;10999;51.332;9.458;2022-10-22T06:48:55;13.80;99.90
21676;DHT22;10999;51.332;9.458;2022-10-22T06:51:22;13.80;99.90
21676;DHT22;10999;51.332;9.458;2022-10-22T06:53:49;13.90;99.90
21676;DHT22;10999;51.332;9.458;2022-10-22T06:56:18;13.90;99.90
21676;DHT22;10999;51.332;9.458;2022-10-22T06:58:49;13.90;99.90
21676;DHT22;10999;51.332;9.458;2022-10-22T07:01:18;13.90;99.90
21676;DHT22;10999;51.332;9.458;2022-10-22T07:03:45;13.90;99.90
21676;DHT22;10999;51.332;9.458;2022-10-22T07:06:13;14.00;99.90
21676;DHT22;10999;51.332;9.458;2022-10-22T07:08:41;14.00;99.90
21676;DHT22;10999;51.332;9.458;2022-10-22T07:11:16;14.00;99.90
21676;DHT22;10999;51.332;9.458;2022-10-22T07:13:44;14.00;99.90
21676;DHT22;10999;51.332;9.458;2022-10-22T07:16:11;14.10;99.90
21676;DHT22;10999;51.332;9.458;2022-10-22T07:18:40;14.10;99.90
21676;DHT22;10999;51.332;9.458;2022-10-22T07:21:08;14.20;99.90
21676;DHT22;10999;51.332;9.458;2022-10-22T07:23:35;14.20;99.90
21676;DHT22;10999;51.332;9.458;2022-10-22T07:26:03;14.20;99.90
21676;DHT22;10999;51.332;9.458;2022-10-22T07:28:34;14.20;99.90
21676;DHT22;10999;51.332;9.458;2022-10-22T07:31:01;14.20;99.90
21676;DHT22;10999;51.332;9.458;2022-10-22T07:33:27;14.10;99.90
21676;DHT22;10999;51.332;9.458;2022-10-22T07:35:59;14.10;99.90
21676;DHT22;10999;51.332;9.458;2022-10-22T07:38:27;14.10;99.90
21676;DHT22;10999;51.332;9.458;2022-10-22T07:40:54;14.10;99.90
21676;DHT22;10999;51.332;9.458;2022-10-22T07:43:21;14.20;99.90
21676;DHT22;10999;51.332;9.458;2022-10-22T07:45:47;14.30;99.90
21676;DHT22;10999;51.332;9.458;2022-10-22T07:48:14;14.30;99.90
21676;DHT22;10999;51.332;9.458;2022-10-22T07:50:41;14.40;99.90
21676;DHT22;10999;51.332;9.458;2022-10-22T07:53:13;14.40;99.90
21676;DHT22;10999;51.332;9.458;2022-10-22T07:55:39;14.40;99.90
21676;DHT22;10999;51.332;9.458;2022-10-22T07:58:06;14.40;99.90
21676;DHT22;10999;51.332;9.458;2022-10-22T08:00:33;14.40;99.90
21676;DHT22;10999;51.332;9.458;2022-10-22T08:03:00;14.60;99.90
21676;DHT22;10999;51.332;9.458;2022-10-22T08:05:27;14.60;99.90
21676;DHT22;10999;51.332;9.458;2022-10-22T08:07:53;14.80;99.90
21676;DHT22;10999;51.332;9.458;2022-10-22T08:10:20;14.90;99.70
21676;DHT22;10999;51.332;9.458;2022-10-22T08:12:47;15.00;99.90
21676;DHT22;10999;51.332;9.458;2022-10-22T08:15:13;15.20;99.00
21676;DHT22;10999;51.332;9.458;2022-10-22T08:17:40;15.30;97.50
21676;DHT22;10999;51.332;9.458;2022-10-22T08:20:07;15.40;95.90
21676;DHT22;10999;51.332;9.458;2022-10-22T08:22:34;15.50;95.60
21676;DHT22;10999;51.332;9.458;2022-10-22T08:25:01;15.40;95.10
21676;DHT22;10999;51.332;9.458;2022-10-22T08:27:27;15.30;93.40
21676;DHT22;10999;51.332;9.458;2022-10-22T08:29:54;15.30;95.00
21676;DHT22;10999;51.332;9.458;2022-10-22T08:32:21;15.30;95.70
21676;DHT22;10999;51.332;9.458;2022-10-22T08:34:47;15.30;96.20
21676;DHT22;10999;51.332;9.458;2022-10-22T08:37:14;15.30;96.20
21676;DHT22;10999;51.332;9.458;2022-10-22T08:39:43;15.30;95.50
21676;DHT22;10999;51.332;9.458;2022-10-22T08:45:14;15.30;95.80
21676;DHT22;10999;51.332;9.458;2022-10-22T08:50:44;15.20;95.60
21676;DHT22;10999;51.332;9.458;2022-10-22T08:53:14;15.20;95.90
21676;DHT22;10999;51.332;9.458;2022-10-22T08:55:43;15.10;96.60
21676;DHT22;10999;51.332;9.458;2022-10-22T08:58:28;15.10;96.70
21676;DHT22;10999;51.332;9.458;2022-10-22T09:01:03;15.10;97.10
21676;DHT22;10999;51.332;9.458;2022-10-22T09:06:22;15.10;97.80
21676;DHT22;10999;51.332;9.458;2022-10-22T09:08:50;15.00;97.20
21676;DHT22;10999;51.332;9.458;2022-10-22T09:11:35;15.10;97.40
21676;DHT22;10999;51.332;9.458;2022-10-22T09:14:03;15.00;97.40
21676;DHT22;10999;51.332;9.458;2022-10-22T09:16:50;15.10;97.80
21676;DHT22;10999;51.332;9.458;2022-10-22T09:19:34;15.10;97.70
21676;DHT22;10999;51.332;9.458;2022-10-22T09:24:58;15.00;97.10
21676;DHT22;10999;51.332;9.458;2022-10-22T09:27:29;15.00;97.10
21676;DHT22;10999;51.332;9.458;2022-10-22T09:29:56;15.00;97.10
21676;DHT22;10999;51.332;9.458;2022-10-22T09:32:24;15.00;97.00
21676;DHT22;10999;51.332;9.458;2022-10-22T09:34:55;15.10;97.50
21676;DHT22;10999;51.332;9.458;2022-10-22T09:37:26;15.10;97.90
21676;DHT22;10999;51.332;9.458;2022-10-22T09:39:55;15.20;98.30
21676;DHT22;10999;51.332;9.458;2022-10-22T09:42:22;15.20;97.70
21676;DHT22;10999;51.332;9.458;2022-10-22T09:44:54;15.20;96.90
21676;DHT22;10999;51.332;9.458;2022-10-22T09:47:37;15.30;97.30
21676;DHT22;10999;51.332;9.458;2022-10-22T09:50:40;15.40;96.90
21676;DHT22;10999;51.332;9.458;2022-10-22T09:53:41;15.40;96.80
21676;DHT22;10999;51.332;9.458;2022-10-22T09:58:45;15.50;97.00
21676;DHT22;10999;51.332;9.458;2022-10-22T10:01:30;15.60;97.70
21676;DHT22;10999;51.332;9.458;2022-10-22T10:04:14;15.70;96.20
21676;DHT22;10999;51.332;9.458;2022-10-22T10:06:43;15.80;94.60
21676;DHT22;10999;51.332;9.458;2022-10-22T10:09:22;15.90;95.00
21676;DHT22;10999;51.332;9.458;2022-10-22T10:26:07;16.30;91.80
21676;DHT22;10999;51.332;9.458;2022-10-22T10:31:38;16.60;89.80
21676;DHT22;10999;51.332;9.458;2022-10-22T10:34:12;16.60;85.40
21676;DHT22;10999;51.332;9.458;2022-10-22T10:37:15;16.60;85.50
21676;DHT22;10999;51.332;9.458;2022-10-22T10:40:00;16.90;86.60
21676;DHT22;10999;51.332;9.458;2022-10-22T10:42:32;17.40;90.10
21676;DHT22;10999;51.332;9.458;2022-10-22T10:47:55;17.70;79.10
21676;DHT22;10999;51.332;9.458;2022-10-22T11:07:27;19.00;70.30
21676;DHT22;10999;51.332;9.458;2022-10-22T11:10:12;18.80;69.40
21676;DHT22;10999;51.332;9.458;2022-10-22T11:12:45;19.00;71.50
21676;DHT22;10999;51.332;9.458;2022-10-22T11:17:45;18.90;68.40
21676;DHT22;10999;51.332;9.458;2022-10-22T11:22:54;18.70;69.90
21676;DHT22;10999;51.332;9.458;2022-10-22T11:25:48;18.50;68.80
21676;DHT22;10999;51.332;9.458;2022-10-22T11:28:39;18.40;69.00
21676;DHT22;10999;51.332;9.458;2022-10-22T11:31:14;18.20;69.30
21676;DHT22;10999;51.332;9.458;2022-10-22T11:34:17;18.20;69.40
21676;DHT22;10999;51.332;9.458;2022-10-22T11:37:02;18.40;67.80
21676;DHT22;10999;51.332;9.458;2022-10-22T11:39:48;18.50;67.90
21676;DHT22;10999;51.332;9.458;2022-10-22T11:42:21;18.80;70.20
21676;DHT22;10999;51.332;9.458;2022-10-22T11:47:52;19.50;64.30
21676;DHT22;10999;51.332;9.458;2022-10-22T11:55:42;19.20;60.10
21676;DHT22;10999;51.332;9.458;2022-10-22T11:58:38;18.90;58.10
21676;DHT22;10999;51.332;9.458;2022-10-22T12:14:10;18.00;67.10
21676;DHT22;10999;51.332;9.458;2022-10-22T12:16:42;18.00;67.50
21676;DHT22;10999;51.332;9.458;2022-10-22T12:21:53;17.90;68.90
21676;DHT22;10999;51.332;9.458;2022-10-22T12:24:22;17.80;68.60
21676;DHT22;10999;51.332;9.458;2022-10-22T12:26:49;17.70;68.90
21676;DHT22;10999;51.332;9.458;2022-10-22T12:29:20;17.70;69.90
21676;DHT22;10999;51.332;9.458;2022-10-22T12:31:49;17.60;69.20
21676;DHT22;10999;51.332;9.458;2022-10-22T12:34:19;17.60;70.00
21676;DHT22;10999;51.332;9.458;2022-10-22T12:36:47;17.60;71.30
21676;DHT22;10999;51.332;9.458;2022-10-22T12:39:18;17.50;71.50
21676;DHT22;10999;51.332;9.458;2022-10-22T12:41:45;17.60;71.50
21676;DHT22;10999;51.332;9.458;2022-10-22T12:44:15;17.70;70.20
21676;DHT22;10999;51.332;9.458;2022-10-22T12:46:44;17.90;70.70
21676;DHT22;10999;51.332;9.458;2022-10-22T12:49:24;18.10;69.70
21676;DHT22;10999;51.332;9.458;2022-10-22T12:51:53;18.40;67.40
21676;DHT22;10999;51.332;9.458;2022-10-22T12:54:27;18.70;68.60
21676;DHT22;10999;51.332;9.458;2022-10-22T12:56:56;19.00;66.90
21676;DHT22;10999;51.332;9.458;2022-10-22T12:59:32;19.30;64.80
21676;DHT22;10999;51.332;9.458;2022-10-22T13:02:00;19.30;61.20
21676;DHT22;10999;51.332;9.458;2022-10-22T13:04:35;19.20;57.20
21676;DHT22;10999;51.332;9.458;2022-10-22T13:12:06;18.90;57.00
21676;DHT22;10999;51.332;9.458;2022-10-22T13:14:35;18.80;57.80
21676;DHT22;10999;51.332;9.458;2022-10-22T13:17:14;18.70;59.10
21676;DHT22;10999;51.332;9.458;2022-10-22T13:22:40;18.70;61.30
21676;DHT22;10999;51.332;9.458;2022-10-22T13:25:24;18.60;59.70
21676;DHT22;10999;51.332;9.458;2022-10-22T13:32:55;18.10;61.10
21676;DHT22;10999;51.332;9.458;2022-10-22T13:35:26;18.00;61.00
21676;DHT22;10999;51.332;9.458;2022-10-22T13:37:54;17.90;63.10
21676;DHT22;10999;51.332;9.458;2022-10-22T13:40:20;17.80;63.60
21676;DHT22;10999;51.332;9.458;2022-10-22T13:42:47;17.80;64.30
21676;DHT22;10999;51.332;9.458;2022-10-22T13:45:14;17.80;62.40
21676;DHT22;10999;51.332;9.458;2022-10-22T13:47:43;17.70;64.70
21676;DHT22;10999;51.332;9.458;2022-10-22T13:50:13;17.70;64.00
21676;DHT22;10999;51.332;9.458;2022-10-22T13:52:49;17.90;62.80
21676;DHT22;10999;51.332;9.458;2022-10-22T13:57:43;18.10;61.90
21676;DHT22;10999;51.332;9.458;2022-10-22T14:00:12;18.30;61.90
21676;DHT22;10999;51.332;9.458;2022-10-22T14:02:40;18.40;60.40
21676;DHT22;10999;51.332;9.458;2022-10-22T14:05:07;18.40;59.50
21676;DHT22;10999;51.332;9.458;2022-10-22T14:07:35;18.20;60.20
21676;DHT22;10999;51.332;9.458;2022-10-22T14:10:12;18.20;61.70
21676;DHT22;10999;51.332;9.458;2022-10-22T14:12:39;18.10;59.70
21676;DHT22;10999;51.332;9.458;2022-10-22T14:15:08;18.10;59.90
21676;DHT22;10999;51.332;9.458;2022-10-22T14:17:35;18.10;60.20
21676;DHT22;10999;51.332;9.458;2022-10-22T14:20:01;18.20;61.20
21676;DHT22;10999;51.332;9.458;2022-10-22T14:22:29;18.20;61.70
21676;DHT22;10999;51.332;9.458;2022-10-22T14:24:56;18.20;61.10
21676;DHT22;10999;51.332;9.458;2022-10-22T14:27:22;18.30;61.10
21676;DHT22;10999;51.332;9.458;2022-10-22T14:29:49;18.20;60.20
21676;DHT22;10999;51.332;9.458;2022-10-22T14:32:17;18.20;60.70
21676;DHT22;10999;51.332;9.458;2022-10-22T14:34:47;18.10;60.90
21676;DHT22;10999;51.332;9.458;2022-10-22T14:37:16;18.10;61.60
21676;DHT22;10999;51.332;9.458;2022-10-22T14:39:44;18.00;61.50
21676;DHT22;10999;51.332;9.458;2022-10-22T14:42:12;17.90;62.50
21676;DHT22;10999;51.332;9.458;2022-10-22T14:44:39;17.80;63.60
21676;DHT22;10999;51.332;9.458;2022-10-22T14:47:06;17.70;63.80
21676;DHT22;10999;51.332;9.458;2022-10-22T14:49:33;17.60;64.60
21676;DHT22;10999;51.332;9.458;2022-10-22T14:51:59;17.50;64.60
21676;DHT22;10999;51.332;9.458;2022-10-22T14:54:26;17.40;65.50
21676;DHT22;10999;51.332;9.458;2022-10-22T14:56:53;17.30;65.90
21676;DHT22;10999;51.332;9.458;2022-10-22T14:59:19;17.20;66.60
21676;DHT22;10999;51.332;9.458;2022-10-22T15:01:46;17.20;67.00
21676;DHT22;10999;51.332;9.458;2022-10-22T15:04:13;17.10;67.80
21676;DHT22;10999;51.332;9.458;2022-10-22T15:06:39;17.10;68.80
21676;DHT22;10999;51.332;9.458;2022-10-22T15:09:06;17.00;68.70
21676;DHT22;10999;51.332;9.458;2022-10-22T15:11:32;17.00;69.00
21676;DHT22;10999;51.332;9.458;2022-10-22T15:13:59;17.00;69.70
21676;DHT22;10999;51.332;9.458;2022-10-22T15:16:26;16.90;70.10
21676;DHT22;10999;51.332;9.458;2022-10-22T15:18:52;16.80;70.70
21676;DHT22;10999;51.332;9.458;2022-10-22T15:21:21;16.80;70.10
21676;DHT22;10999;51.332;9.458;2022-10-22T15:23:48;16.70;70.70
21676;DHT22;10999;51.332;9.458;2022-10-22T15:26:16;16.70;69.90
21676;DHT22;10999;51.332;9.458;2022-10-22T15:28:43;16.60;70.50
21676;DHT22;10999;51.332;9.458;2022-10-22T15:31:12;16.60;70.00
21676;DHT22;10999;51.332;9.458;2022-10-22T15:33:40;16.50;70.70
21676;DHT22;10999;51.332;9.458;2022-10-22T15:36:13;16.50;70.60
21676;DHT22;10999;51.332;9.458;2022-10-22T15:38:41;16.40;70.90
21676;DHT22;10999;51.332;9.458;2022-10-22T15:41:09;16.40;71.30
21676;DHT22;10999;51.332;9.458;2022-10-22T15:43:36;16.40;71.70
21676;DHT22;10999;51.332;9.458;2022-10-22T15:46:15;16.30;72.40
21676;DHT22;10999;51.332;9.458;2022-10-22T15:48:42;16.40;72.20
21676;DHT22;10999;51.332;9.458;2022-10-22T15:51:14;16.30;72.70
21676;DHT22;10999;51.332;9.458;2022-10-22T15:53:41;16.30;72.80
21676;DHT22;10999;51.332;9.458;2022-10-22T15:56:09;16.20;73.00
21676;DHT22;10999;51.332;9.458;2022-10-22T15:58:39;16.20;73.50
21676;DHT22;10999;51.332;9.458;2022-10-22T16:01:11;16.10;74.40
21676;DHT22;10999;51.332;9.458;2022-10-22T16:03:39;16.10;75.00
21676;DHT22;10999;51.332;9.458;2022-10-22T16:06:07;16.10;75.50
21676;DHT22;10999;51.332;9.458;2022-10-22T16:08:35;16.00;76.20
21676;DHT22;10999;51.332;9.458;2022-10-22T16:11:02;15.90;76.50
21676;DHT22;10999;51.332;9.458;2022-10-22T16:13:29;15.90;76.90
21676;DHT22;10999;51.332;9.458;2022-10-22T16:15:56;15.90;77.20
21676;DHT22;10999;51.332;9.458;2022-10-22T16:18:23;15.80;77.70
21676;DHT22;10999;51.332;9.458;2022-10-22T16:20:49;15.80;78.20
21676;DHT22;10999;51.332;9.458;2022-10-22T16:23:16;15.70;78.50
21676;DHT22;10999;51.332;9.458;2022-10-22T16:25:44;15.70;78.60
21676;DHT22;10999;51.332;9.458;2022-10-22T16:28:11;15.70;78.20
21676;DHT22;10999;51.332;9.458;2022-10-22T16:30:38;15.60;78.40
21676;DHT22;10999;51.332;9.458;2022-10-22T16:33:05;15.60;78.90
21676;DHT22;10999;51.332;9.458;2022-10-22T16:35:33;15.60;79.30
21676;DHT22;10999;51.332;9.458;2022-10-22T16:37:59;15.50;80.30
21676;DHT22;10999;51.332;9.458;2022-10-22T16:40:26;15.50;81.00
21676;DHT22;10999;51.332;9.458;2022-10-22T16:42:54;15.40;81.40
21676;DHT22;10999;51.332;9.458;2022-10-22T16:45:21;15.50;82.20
21676;DHT22;10999;51.332;9.458;2022-10-22T16:47:47;15.40;82.30
21676;DHT22;10999;51.332;9.458;2022-10-22T16:50:14;15.40;82.70
21676;DHT22;10999;51.332;9.458;2022-10-22T16:52:41;15.30;82.80
21676;DHT22;10999;51.332;9.458;2022-10-22T16:55:08;15.30;82.90
21676;DHT22;10999;51.332;9.458;2022-10-22T16:57:35;15.30;83.50
21676;DHT22;10999;51.332;9.458;2022-10-22T17:00:04;15.30;83.90
21676;DHT22;10999;51.332;9.458;2022-10-22T17:02:30;15.20;83.80
21676;DHT22;10999;51.332;9.458;2022-10-22T17:04:57;15.20;83.90
21676;DHT22;10999;51.332;9.458;2022-10-22T17:07:24;15.10;84.50
21676;DHT22;10999;51.332;9.458;2022-10-22T17:09:50;15.10;84.60
21676;DHT22;10999;51.332;9.458;2022-10-22T17:12:17;15.00;84.60
21676;DHT22;10999;51.332;9.458;2022-10-22T17:14:43;14.90;85.10
21676;DHT22;10999;51.332;9.458;2022-10-22T17:17:10;14.90;85.40
21676;DHT22;10999;51.332;9.458;2022-10-22T17:19:37;14.80;85.50
21676;DHT22;10999;51.332;9.458;2022-10-22T17:22:04;14.80;86.00
21676;DHT22;10999;51.332;9.458;2022-10-22T17:24:31;14.70;86.20
21676;DHT22;10999;51.332;9.458;2022-10-22T17:26:58;14.70;86.30
21676;DHT22;10999;51.332;9.458;2022-10-22T17:29:25;14.70;86.60
21676;DHT22;10999;51.332;9.458;2022-10-22T17:31:52;14.50;87.00
21676;DHT22;10999;51.332;9.458;2022-10-22T17:34:18;14.50;87.70
21676;DHT22;10999;51.332;9.458;2022-10-22T17:36:45;14.50;87.80
21676;DHT22;10999;51.332;9.458;2022-10-22T17:39:15;14.50;88.30
21676;DHT22;10999;51.332;9.458;2022-10-22T17:41:42;14.40;88.20
21676;DHT22;10999;51.332;9.458;2022-10-22T17:44:09;14.40;88.20
21676;DHT22;10999;51.332;9.458;2022-10-22T17:46:37;14.30;88.60